Time;durP1;ratioP1;P1;durP2;ratioP2;P2;SDS_P1;SDS_P2;PMS_P1;PMS_P2;Temp;Humidity;BMP_temperature;BMP_pressure;BME280_temperature;BME280_humidity;BME280_pressure;Samples;Min_cycle;Max_cycle;Signal;HPM_P1;HPM_P2
2023/07/06 00:02:09;;;;;;;1.10;1.00;;;23.30;39.80;;;;;;4993955;28;20262;-64
2023/07/06 00:04:37;;;;;;;1.40;1.30;;;23.40;39.90;;;;;;4991060;28;21142;-64
2023/07/06 00:07:03;;;;;;;1.20;1.10;;;23.40;39.80;;;;;;4993043;28;20499;-64
2023/07/06 00:09:28;;;;;;;1.70;1.00;;;23.40;40.60;;;;;;4992217;28;20544;-64
2023/07/06 00:11:55;;;;;;;1.10;1.00;;;23.40;39.80;;;;;;4992412;28;20274;-64
2023/07/06 00:14:24;;;;;;;5.43;0.90;;;23.40;39.90;;;;;;4995385;28;20238;-64
2023/07/06 00:17:08;;;;;;;1.40;1.30;;;23.30;39.70;;;;;;4991489;28;20456;-64
2023/07/06 00:19:34;;;;;;;1.13;1.10;;;23.40;39.80;;;;;;4994751;28;20512;-64
2023/07/06 00:22:00;;;;;;;1.30;1.20;;;23.40;39.80;;;;;;4991744;28;20481;-64
2023/07/06 00:24:26;;;;;;;1.10;1.00;;;23.40;39.80;;;;;;4981861;28;20815;-64
2023/07/06 00:26:52;;;;;;;1.33;1.23;;;23.40;39.80;;;;;;4996127;28;20219;-63
2023/07/06 00:29:17;;;;;;;1.17;1.07;;;23.30;39.70;;;;;;4992636;28;20465;-63
2023/07/06 00:31:51;;;;;;;1.20;1.10;;;23.30;39.80;;;;;;4991519;28;20357;-63
2023/07/06 00:34:17;;;;;;;1.20;1.10;;;23.40;39.80;;;;;;4979112;28;20567;-64
2023/07/06 00:36:43;;;;;;;1.27;1.17;;;23.30;39.70;;;;;;4992396;28;20452;-63
2023/07/06 00:39:12;;;;;;;1.17;1.07;;;23.30;39.70;;;;;;4992128;28;20450;-63
2023/07/06 00:41:38;;;;;;;1.20;1.10;;;23.40;39.80;;;;;;4993278;28;20258;-63
2023/07/06 00:44:04;;;;;;;1.20;1.10;;;23.30;39.70;;;;;;4991337;28;20465;-64
2023/07/06 00:46:40;;;;;;;1.50;1.23;;;23.30;39.70;;;;;;4992410;28;20465;-63
2023/07/06 00:49:12;;;;;;;1.30;1.20;;;23.30;39.70;;;;;;4978582;28;20219;-64
2023/07/06 00:51:39;;;;;;;1.13;1.00;;;23.30;39.70;;;;;;4993717;28;20452;-64
2023/07/06 00:54:09;;;;;;;1.17;1.00;;;23.40;39.90;;;;;;4994614;28;20469;-64
2023/07/06 00:56:40;;;;;;;1.37;1.27;;;23.30;39.80;;;;;;4994288;28;20518;-64
2023/07/06 00:59:09;;;;;;;1.20;1.10;;;23.30;39.70;;;;;;4990912;28;21606;-64
2023/07/06 01:01:38;;;;;;;1.20;1.10;;;23.30;39.70;;;;;;4991295;28;20979;-63
2023/07/06 01:04:06;;;;;;;1.07;1.03;;;23.30;39.70;;;;;;4992025;28;20465;-63
2023/07/06 01:06:39;;;;;;;1.10;1.00;;;23.30;39.70;;;;;;4994659;28;20470;-63
2023/07/06 01:09:06;;;;;;;1.30;1.20;;;23.30;39.80;;;;;;4990252;28;20477;-63
2023/07/06 01:11:37;;;;;;;1.20;1.00;;;23.30;39.70;;;;;;4992262;28;20518;-64
2023/07/06 01:14:03;;;;;;;1.30;1.20;;;23.30;39.80;;;;;;4994646;28;20478;-65
2023/07/06 01:16:55;;;;;;;3.97;1.40;;;23.30;39.80;;;;;;4990094;28;20457;-64
2023/07/06 01:19:51;;;;;;;1.30;1.20;;;23.30;39.70;;;;;;4990934;28;20242;-63
2023/07/06 01:22:38;;;;;;;1.13;1.03;;;23.30;39.80;;;;;;4992290;28;20562;-64
2023/07/06 01:25:31;;;;;;;1.30;1.20;;;23.30;39.70;;;;;;4991329;28;20520;-63
2023/07/06 01:28:28;;;;;;;1.23;1.13;;;23.30;39.80;;;;;;4992564;28;20465;-64
2023/07/06 01:31:12;;;;;;;1.30;1.20;;;23.30;39.70;;;;;;4996976;28;21003;-64
2023/07/06 01:33:47;;;;;;;1.20;1.10;;;23.30;39.80;;;;;;4994627;28;20556;-63
2023/07/06 01:36:34;;;;;;;1.20;1.10;;;23.30;39.80;;;;;;4996524;28;20478;-65
2023/07/06 01:39:18;;;;;;;1.30;1.20;;;23.30;39.70;;;;;;4998478;28;20476;-64
2023/07/06 01:41:45;;;;;;;1.30;1.20;;;23.30;39.80;;;;;;4981156;28;20849;-64
2023/07/06 01:44:13;;;;;;;2.03;1.20;;;23.30;39.80;;;;;;4996560;28;20465;-63
2023/07/06 01:46:52;;;;;;;1.10;1.00;;;23.30;39.80;;;;;;4995186;28;20965;-63
2023/07/06 01:49:18;;;;;;;1.40;1.30;;;23.30;39.80;;;;;;4994482;28;20495;-64
2023/07/06 01:52:09;;;;;;;1.60;1.50;;;23.30;39.70;;;;;;4994048;28;20451;-64
2023/07/06 01:54:44;;;;;;;2.60;1.20;;;23.30;39.70;;;;;;4984404;28;21129;-64
2023/07/06 01:57:21;;;;;;;1.40;1.30;;;23.30;39.70;;;;;;4995250;28;20464;-64
2023/07/06 01:59:50;;;;;;;1.30;1.20;;;23.30;39.70;;;;;;4995155;28;20529;-63
2023/07/06 02:02:19;;;;;;;1.20;1.10;;;23.30;39.80;;;;;;4997077;28;20465;-63
2023/07/06 02:04:46;;;;;;;1.13;1.03;;;23.30;39.80;;;;;;4997701;28;20461;-64
2023/07/06 02:07:16;;;;;;;1.40;1.30;;;23.30;39.70;;;;;;4979860;28;20456;-63
2023/07/06 02:09:46;;;;;;;1.27;1.17;;;23.30;39.80;;;;;;4993208;28;20488;-63
2023/07/06 02:12:12;;;;;;;1.33;1.23;;;23.30;39.70;;;;;;4986682;28;20460;-64
2023/07/06 02:14:38;;;;;;;1.27;1.17;;;23.30;39.80;;;;;;4997231;28;20519;-64
2023/07/06 02:17:06;;;;;;;1.27;1.17;;;23.30;39.70;;;;;;4994138;28;20957;-64
2023/07/06 02:19:33;;;;;;;1.30;1.20;;;23.30;39.70;;;;;;4995186;28;20514;-62
2023/07/06 02:21:58;;;;;;;1.50;1.40;;;23.30;39.70;;;;;;4995270;28;20506;-64
2023/07/06 02:24:24;;;;;;;1.40;1.30;;;23.30;39.70;;;;;;4994264;28;20808;-63
2023/07/06 02:26:49;;;;;;;1.30;1.20;;;23.30;39.70;;;;;;4995267;28;20261;-64
2023/07/06 02:29:15;;;;;;;1.83;1.47;;;23.30;39.70;;;;;;4995682;28;20219;-64
2023/07/06 02:31:40;;;;;;;1.33;1.23;;;23.30;39.70;;;;;;4996333;28;20216;-64
2023/07/06 02:34:06;;;;;;;1.40;1.30;;;23.30;39.70;;;;;;4994833;28;20266;-63
2023/07/06 02:36:32;;;;;;;1.37;1.27;;;23.30;39.70;;;;;;4997875;28;20585;-64
2023/07/06 02:38:58;;;;;;;1.60;1.50;;;23.30;39.70;;;;;;4996231;28;20219;-64
2023/07/06 02:41:24;;;;;;;1.40;1.30;;;23.30;39.60;;;;;;4996629;28;20499;-63
2023/07/06 02:43:49;;;;;;;1.43;1.33;;;23.30;39.70;;;;;;4994888;28;20551;-64
2023/07/06 02:46:19;;;;;;;1.30;1.20;;;23.30;39.60;;;;;;4997606;28;21068;-63
2023/07/06 02:48:46;;;;;;;1.30;1.20;;;23.30;39.60;;;;;;4995203;28;20234;-64
2023/07/06 02:51:12;;;;;;;1.60;1.50;;;23.30;39.70;;;;;;4996856;28;20555;-64
2023/07/06 02:53:38;;;;;;;1.30;1.20;;;23.30;39.60;;;;;;4997556;28;20457;-64
2023/07/06 02:56:03;;;;;;;1.20;1.10;;;23.30;39.70;;;;;;4996466;28;20485;-64
2023/07/06 02:58:29;;;;;;;1.20;1.10;;;23.30;39.60;;;;;;4993942;28;20241;-64
2023/07/06 03:00:55;;;;;;;1.23;1.13;;;23.30;39.60;;;;;;4994840;28;20682;-64
2023/07/06 03:03:26;;;;;;;1.40;1.30;;;23.30;39.60;;;;;;4994911;28;20526;-64
2023/07/06 03:05:52;;;;;;;1.40;1.30;;;23.30;39.60;;;;;;4995828;28;20229;-65
2023/07/06 03:08:17;;;;;;;1.23;1.13;;;23.30;39.60;;;;;;4995078;28;20817;-64
2023/07/06 03:10:46;;;;;;;1.53;1.43;;;23.30;39.60;;;;;;4992899;28;20223;-64
2023/07/06 03:13:13;;;;;;;1.50;1.40;;;23.30;39.60;;;;;;4995013;28;20224;-64
2023/07/06 03:15:40;;;;;;;1.30;1.20;;;23.20;39.50;;;;;;4996967;28;22227;-64
2023/07/06 03:18:07;;;;;;;1.30;1.20;;;23.30;39.60;;;;;;4995861;28;20451;-64
2023/07/06 03:20:36;;;;;;;1.77;1.67;;;23.20;39.50;;;;;;4996216;28;20469;-64
2023/07/06 03:23:02;;;;;;;1.60;1.50;;;23.20;39.50;;;;;;4980703;28;20523;-64
2023/07/06 03:25:28;;;;;;;1.30;1.20;;;23.30;39.60;;;;;;4994974;28;20473;-64
2023/07/06 03:27:54;;;;;;;1.30;1.20;;;23.20;39.50;;;;;;4993655;28;20469;-64
2023/07/06 03:30:23;;;;;;;1.30;1.10;;;23.30;39.50;;;;;;4993757;28;20500;-64
2023/07/06 03:32:49;;;;;;;1.27;1.17;;;23.20;39.60;;;;;;4996235;28;20458;-64
2023/07/06 03:35:16;;;;;;;1.20;1.10;;;23.20;39.50;;;;;;4995083;28;20476;-64
2023/07/06 03:37:43;;;;;;;2.47;1.20;;;23.30;39.50;;;;;;4993468;28;21457;-64
2023/07/06 03:40:13;;;;;;;1.40;1.30;;;23.30;39.50;;;;;;4995995;28;20237;-64
2023/07/06 03:42:43;;;;;;;1.73;1.63;;;23.20;39.40;;;;;;4989629;28;20519;-63
2023/07/06 03:45:10;;;;;;;1.30;1.20;;;23.20;39.50;;;;;;4994321;28;21290;-64
2023/07/06 03:47:37;;;;;;;1.40;1.30;;;23.20;39.50;;;;;;4996794;28;20446;-64
2023/07/06 03:50:04;;;;;;;1.50;1.40;;;23.20;39.50;;;;;;4990149;28;20444;-64
2023/07/06 03:52:30;;;;;;;2.47;1.47;;;23.20;39.50;;;;;;4988273;28;20921;-63
2023/07/06 03:54:59;;;;;;;1.47;1.27;;;23.20;39.50;;;;;;4996124;28;20505;-64
2023/07/06 03:57:27;;;;;;;1.30;1.20;;;23.20;39.50;;;;;;4996453;28;20307;-64
2023/07/06 03:59:52;;;;;;;1.50;1.40;;;23.20;39.50;;;;;;4979488;28;20469;-64
2023/07/06 04:02:20;;;;;;;1.43;1.20;;;23.20;39.50;;;;;;4975992;28;20879;-64
2023/07/06 04:04:46;;;;;;;1.40;1.30;;;23.20;39.40;;;;;;4997658;28;20231;-63
2023/07/06 04:07:11;;;;;;;1.30;1.20;;;23.20;39.40;;;;;;4992672;28;22020;-63
2023/07/06 04:09:38;;;;;;;2.10;1.20;;;23.20;39.40;;;;;;4992395;28;20697;-64
2023/07/06 04:12:05;;;;;;;1.50;1.40;;;23.20;39.30;;;;;;4992145;28;20353;-63
2023/07/06 04:14:31;;;;;;;1.10;1.00;;;23.20;39.40;;;;;;4991382;28;20563;-64
2023/07/06 04:16:57;;;;;;;2.10;1.30;;;23.20;39.30;;;;;;4992307;28;20461;-64
2023/07/06 04:19:24;;;;;;;1.50;1.33;;;23.20;39.30;;;;;;4992752;28;20239;-63
2023/07/06 04:21:53;;;;;;;1.63;1.47;;;23.20;39.30;;;;;;4993184;28;20227;-64
2023/07/06 04:24:18;;;;;;;1.57;1.47;;;23.20;39.30;;;;;;4988728;28;20468;-63
2023/07/06 04:26:47;;;;;;;1.40;1.30;;;23.20;39.30;;;;;;4995526;28;21458;-63
2023/07/06 04:29:13;;;;;;;1.30;1.20;;;23.20;39.30;;;;;;4991535;28;20230;-64
2023/07/06 04:31:40;;;;;;;2.23;1.40;;;23.20;39.30;;;;;;4987871;28;20994;-63
2023/07/06 04:34:07;;;;;;;1.40;1.30;;;23.20;39.20;;;;;;4988948;28;20484;-64
2023/07/06 04:36:32;;;;;;;2.07;1.30;;;23.20;39.20;;;;;;4980565;28;20223;-64
2023/07/06 04:38:59;;;;;;;1.40;1.30;;;23.20;39.20;;;;;;4995781;28;20453;-64
2023/07/06 04:41:25;;;;;;;1.50;1.40;;;23.20;40.00;;;;;;4990239;28;20314;-63
2023/07/06 04:43:52;;;;;;;1.77;1.50;;;23.20;39.20;;;;;;4994655;28;20996;-64
2023/07/06 04:46:18;;;;;;;1.40;1.30;;;23.20;39.10;;;;;;4990255;28;20472;-64
2023/07/06 04:48:44;;;;;;;1.20;1.10;;;23.20;39.20;;;;;;4991543;28;20452;-64
2023/07/06 04:51:11;;;;;;;1.40;1.30;;;23.20;39.20;;;;;;4986341;28;20465;-64
2023/07/06 04:53:37;;;;;;;1.40;1.30;;;23.20;39.20;;;;;;4990310;28;20465;-64
2023/07/06 04:56:04;;;;;;;1.30;1.20;;;23.20;40.00;;;;;;4988876;28;20485;-64
2023/07/06 04:58:30;;;;;;;1.63;1.50;;;23.20;39.10;;;;;;4987602;28;20231;-65
2023/07/06 05:00:56;;;;;;;1.47;1.37;;;23.20;39.10;;;;;;4989175;28;20464;-64
2023/07/06 05:03:23;;;;;;;2.17;1.20;;;23.30;39.20;;;;;;4988212;28;20328;-65
2023/07/06 05:05:48;;;;;;;1.93;1.50;;;23.20;39.10;;;;;;4990597;28;22033;-64
2023/07/06 05:08:16;;;;;;;2.27;1.40;;;23.20;39.10;;;;;;4989273;28;20477;-64
2023/07/06 05:10:48;;;;;;;1.43;1.30;;;23.20;39.00;;;;;;4990158;28;21332;-64
2023/07/06 05:13:14;;;;;;;1.33;1.23;;;23.20;39.10;;;;;;4988424;28;20526;-64
2023/07/06 05:15:40;;;;;;;1.77;1.20;;;23.20;39.10;;;;;;4989364;28;20648;-64
2023/07/06 05:18:06;;;;;;;1.40;1.30;;;23.20;39.10;;;;;;4990591;28;20483;-64
2023/07/06 05:20:33;;;;;;;1.63;1.47;;;23.20;39.20;;;;;;4989695;28;20840;-64
2023/07/06 05:22:59;;;;;;;1.57;1.47;;;23.20;39.10;;;;;;4989357;28;20441;-65
2023/07/06 05:25:26;;;;;;;1.40;1.30;;;23.20;39.10;;;;;;4987625;28;20667;-67
2023/07/06 05:27:52;;;;;;;1.50;1.40;;;23.20;39.10;;;;;;4982418;28;20219;-66
2023/07/06 05:30:18;;;;;;;1.50;1.30;;;23.30;39.20;;;;;;4991705;28;20594;-66
2023/07/06 05:32:44;;;;;;;1.70;1.60;;;23.20;39.10;;;;;;4990533;28;20478;-66
2023/07/06 05:35:09;;;;;;;1.50;1.37;;;23.20;39.10;;;;;;4992713;28;20241;-66
2023/07/06 05:37:35;;;;;;;1.40;1.27;;;23.20;39.00;;;;;;4995580;28;20216;-66
2023/07/06 05:40:04;;;;;;;1.40;1.20;;;23.20;39.00;;;;;;4992264;28;20342;-65
2023/07/06 05:42:32;;;;;;;1.20;1.10;;;23.20;39.00;;;;;;4988782;28;20255;-66
2023/07/06 05:44:58;;;;;;;1.30;1.20;;;23.20;39.00;;;;;;4986441;28;20484;-65
2023/07/06 05:47:23;;;;;;;1.40;1.20;;;23.30;39.10;;;;;;4995035;28;21068;-65
2023/07/06 05:49:49;;;;;;;1.60;1.33;;;23.30;39.10;;;;;;4991396;28;20223;-65
2023/07/06 05:52:14;;;;;;;2.13;1.30;;;23.20;38.90;;;;;;4986529;28;20227;-67
2023/07/06 05:54:40;;;;;;;1.23;1.13;;;23.20;39.00;;;;;;4992626;28;20231;-67
2023/07/06 05:57:08;;;;;;;1.37;1.27;;;23.30;39.00;;;;;;4987662;28;21096;-67
2023/07/06 05:59:33;;;;;;;1.40;1.30;;;23.30;39.00;;;;;;4978608;28;20250;-66
2023/07/06 06:01:59;;;;;;;3.40;1.50;;;23.30;39.00;;;;;;4990145;28;20548;-66
2023/07/06 06:04:27;;;;;;;1.20;1.10;;;23.30;39.10;;;;;;4990444;28;20222;-66
2023/07/06 06:06:55;;;;;;;2.30;1.53;;;23.20;38.90;;;;;;4984016;28;20230;-66
2023/07/06 06:09:24;;;;;;;1.43;1.33;;;23.30;39.00;;;;;;4987279;28;20453;-65
2023/07/06 06:11:51;;;;;;;1.63;1.47;;;23.30;39.00;;;;;;4986895;28;20480;-66
2023/07/06 06:14:17;;;;;;;1.23;1.13;;;23.30;39.10;;;;;;4988667;28;20466;-66
2023/07/06 06:16:42;;;;;;;1.80;1.37;;;23.30;38.90;;;;;;4995596;28;20461;-66
2023/07/06 06:19:09;;;;;;;1.40;1.30;;;23.30;39.00;;;;;;4993410;28;20460;-66
2023/07/06 06:21:35;;;;;;;1.40;1.30;;;23.20;38.80;;;;;;4991430;28;20227;-66
2023/07/06 06:24:02;;;;;;;1.50;1.40;;;23.30;38.90;;;;;;4992231;28;20460;-66
2023/07/06 06:26:29;;;;;;;1.40;1.30;;;23.30;38.80;;;;;;4989236;28;20252;-66
2023/07/06 06:28:57;;;;;;;1.20;1.10;;;23.30;38.80;;;;;;4995853;28;21980;-66
2023/07/06 06:31:23;;;;;;;1.27;1.17;;;23.30;38.80;;;;;;4991601;28;20464;-65
2023/07/06 06:33:49;;;;;;;1.20;1.10;;;23.30;39.00;;;;;;4991777;28;21024;-66
2023/07/06 06:36:18;;;;;;;1.40;1.30;;;23.30;38.80;;;;;;4994816;28;20473;-65
2023/07/06 06:38:44;;;;;;;1.70;1.60;;;23.30;38.80;;;;;;4995575;28;20266;-66
2023/07/06 06:41:10;;;;;;;1.87;1.77;;;23.30;38.80;;;;;;4994462;28;20530;-66
2023/07/06 06:43:40;;;;;;;1.83;1.30;;;23.30;38.80;;;;;;4993617;28;20451;-66
2023/07/06 06:46:10;;;;;;;1.57;1.27;;;23.30;38.80;;;;;;4992371;28;20743;-66
2023/07/06 06:48:36;;;;;;;1.60;1.10;;;23.30;38.80;;;;;;4994236;28;20438;-65
2023/07/06 06:51:04;;;;;;;1.53;1.30;;;23.30;38.80;;;;;;4990242;28;20457;-66
2023/07/06 06:53:30;;;;;;;1.30;1.20;;;23.30;38.70;;;;;;4992809;28;20223;-66
2023/07/06 06:55:56;;;;;;;1.20;1.10;;;23.30;38.80;;;;;;4992719;28;20496;-66
2023/07/06 06:58:23;;;;;;;1.63;1.20;;;23.30;38.70;;;;;;4986434;28;20238;-66
2023/07/06 07:01:02;;;;;;;1.37;1.27;;;23.30;38.80;;;;;;4982612;28;20469;-66
2023/07/06 07:03:28;;;;;;;1.40;1.20;;;23.30;38.70;;;;;;4990863;28;20462;-66
2023/07/06 07:06:01;;;;;;;1.57;1.47;;;23.30;38.70;;;;;;4988167;28;20814;-66
2023/07/06 07:08:27;;;;;;;1.47;1.37;;;23.30;38.70;;;;;;4989994;28;20224;-66
2023/07/06 07:10:57;;;;;;;1.60;1.50;;;23.30;38.70;;;;;;4993251;28;20812;-66
2023/07/06 07:13:24;;;;;;;1.50;1.40;;;23.30;38.70;;;;;;4987053;28;20465;-66
2023/07/06 07:15:50;;;;;;;1.80;1.50;;;23.30;38.70;;;;;;4994528;28;20474;-65
2023/07/06 07:18:15;;;;;;;1.40;1.30;;;23.30;38.70;;;;;;4991082;28;20812;-66
2023/07/06 07:20:43;;;;;;;1.40;1.30;;;23.30;38.70;;;;;;4996245;28;20224;-65
2023/07/06 07:23:09;;;;;;;2.83;2.53;;;23.30;38.70;;;;;;4992869;28;20269;-64
2023/07/06 07:25:38;;;;;;;1.87;1.27;;;23.30;38.70;;;;;;4989962;28;20453;-65
2023/07/06 07:28:05;;;;;;;2.33;1.30;;;23.30;38.70;;;;;;4993072;28;20982;-66
2023/07/06 07:30:30;;;;;;;1.47;1.37;;;23.30;38.70;;;;;;4990594;28;21012;-66
2023/07/06 07:32:57;;;;;;;1.50;1.40;;;23.30;38.70;;;;;;4994520;28;20453;-66
2023/07/06 07:35:23;;;;;;;1.60;1.13;;;23.30;38.70;;;;;;4996354;28;20271;-66
2023/07/06 07:37:50;;;;;;;2.27;1.40;;;23.30;38.70;;;;;;4992680;28;20595;-66
2023/07/06 07:40:18;;;;;;;1.40;1.30;;;23.30;38.70;;;;;;4993304;28;20278;-66
2023/07/06 07:42:46;;;;;;;1.50;1.40;;;23.30;38.70;;;;;;4992245;28;20536;-66
2023/07/06 07:45:17;;;;;;;1.60;1.50;;;23.30;38.70;;;;;;4987576;28;20969;-66
2023/07/06 07:47:42;;;;;;;1.40;1.30;;;23.30;38.70;;;;;;4994647;28;21032;-67
2023/07/06 07:50:08;;;;;;;1.27;1.17;;;23.30;38.80;;;;;;4991768;28;20471;-67
2023/07/06 07:52:34;;;;;;;1.40;1.20;;;23.30;38.80;;;;;;4991423;28;20246;-66
2023/07/06 07:55:00;;;;;;;1.10;1.00;;;23.30;38.80;;;;;;4990663;28;20672;-66
2023/07/06 07:57:30;;;;;;;1.20;1.10;;;23.30;39.60;;;;;;4994456;28;20982;-66
2023/07/06 07:59:56;;;;;;;1.23;1.13;;;23.30;38.90;;;;;;4993474;28;20995;-66
2023/07/06 08:02:21;;;;;;;1.23;1.13;;;23.30;38.90;;;;;;4993377;28;20456;-66
2023/07/06 08:04:48;;;;;;;1.50;1.40;;;23.30;39.00;;;;;;4994715;28;20239;-66
2023/07/06 08:07:14;;;;;;;1.30;1.20;;;23.30;38.90;;;;;;4992641;28;20235;-66
2023/07/06 08:09:40;;;;;;;1.53;1.43;;;23.30;39.00;;;;;;4995790;28;20473;-66
2023/07/06 08:12:06;;;;;;;1.40;1.30;;;23.30;39.00;;;;;;4997377;28;20531;-66
2023/07/06 08:14:43;;;;;;;2.10;1.30;;;23.30;38.90;;;;;;4995043;28;20465;-66
2023/07/06 08:17:10;;;;;;;1.40;1.30;;;23.30;39.00;;;;;;4991706;28;20229;-65
2023/07/06 08:19:36;;;;;;;1.50;1.40;;;23.30;39.00;;;;;;4988957;28;20596;-66
2023/07/06 08:22:03;;;;;;;1.40;1.30;;;23.30;39.00;;;;;;4991217;28;20484;-66
2023/07/06 08:24:29;;;;;;;1.47;1.10;;;23.30;39.00;;;;;;4992259;28;20216;-66
2023/07/06 08:26:55;;;;;;;1.30;1.20;;;23.30;39.00;;;;;;4987398;28;21349;-66
2023/07/06 08:29:21;;;;;;;1.93;1.67;;;23.30;39.00;;;;;;4990579;28;20473;-67
2023/07/06 08:31:49;;;;;;;1.40;1.30;;;23.30;39.00;;;;;;4988075;28;20465;-67
2023/07/06 08:34:16;;;;;;;1.23;1.13;;;23.30;39.00;;;;;;4994698;28;20492;-66
2023/07/06 08:36:43;;;;;;;1.53;1.40;;;23.30;39.10;;;;;;4992168;28;20453;-66
2023/07/06 08:39:09;;;;;;;1.30;1.20;;;23.30;39.00;;;;;;4995608;28;21490;-66
2023/07/06 08:41:42;;;;;;;1.90;1.80;;;23.30;39.00;;;;;;4995151;28;20457;-66
2023/07/06 08:44:12;;;;;;;1.23;1.10;;;23.30;39.00;;;;;;4992504;28;20472;-66
2023/07/06 08:46:42;;;;;;;1.40;1.30;;;23.30;39.10;;;;;;4992722;28;20485;-66
2023/07/06 08:49:19;;;;;;;2.30;1.40;;;23.30;39.10;;;;;;4993868;28;20445;-66
2023/07/06 08:51:46;;;;;;;2.13;1.30;;;23.30;39.10;;;;;;4988946;28;20458;-66
2023/07/06 08:54:24;;;;;;;1.27;1.17;;;23.30;39.00;;;;;;4990972;28;21063;-66
2023/07/06 08:56:50;;;;;;;1.33;1.23;;;23.30;39.00;;;;;;4993942;28;20473;-66
2023/07/06 08:59:39;;;;;;;1.40;1.30;;;23.30;39.00;;;;;;4988790;28;20460;-66
2023/07/06 09:02:26;;;;;;;1.53;1.43;;;23.30;39.00;;;;;;4995014;28;20506;-66
2023/07/06 09:04:54;;;;;;;1.60;1.50;;;23.30;39.00;;;;;;4990779;28;20547;-66
2023/07/06 09:07:34;;;;;;;1.50;1.20;;;23.30;39.00;;;;;;4990634;28;20484;-66
2023/07/06 09:10:01;;;;;;;1.43;1.30;;;23.30;39.00;;;;;;4984215;28;20467;-66
2023/07/06 09:12:32;;;;;;;1.20;1.10;;;23.30;39.00;;;;;;4987165;28;20892;-67
2023/07/06 09:14:59;;;;;;;1.60;1.40;;;23.30;39.00;;;;;;4991149;28;20523;-66
2023/07/06 09:17:26;;;;;;;1.60;1.30;;;23.30;38.80;;;;;;4991261;28;20449;-66
2023/07/06 09:19:53;;;;;;;1.20;1.10;;;23.30;39.00;;;;;;4991194;28;20472;-66
2023/07/06 09:22:21;;;;;;;1.50;1.40;;;23.30;38.90;;;;;;4988896;28;20933;-66
2023/07/06 09:24:47;;;;;;;1.47;1.37;;;23.30;38.90;;;;;;4990276;28;20538;-67
2023/07/06 09:27:26;;;;;;;1.20;1.10;;;23.30;39.00;;;;;;4991636;28;20544;-66
2023/07/06 09:29:58;;;;;;;2.30;1.40;;;23.30;38.80;;;;;;4991528;28;20238;-66
2023/07/06 09:32:24;;;;;;;1.20;1.10;;;23.30;38.80;;;;;;4987657;28;20465;-66
2023/07/06 09:34:56;;;;;;;1.20;1.10;;;23.40;38.90;;;;;;4990246;28;20468;-66
2023/07/06 09:37:22;;;;;;;1.50;1.40;;;23.30;38.80;;;;;;4991435;28;20791;-66
2023/07/06 09:40:00;;;;;;;1.57;1.20;;;23.30;38.70;;;;;;4991766;28;20964;-66
2023/07/06 09:42:28;;;;;;;1.30;1.20;;;23.30;38.70;;;;;;4989255;28;20815;-66
2023/07/06 09:44:53;;;;;;;1.03;0.97;;;23.30;38.70;;;;;;4995582;28;20890;-66
2023/07/06 09:47:20;;;;;;;2.13;1.40;;;23.40;38.80;;;;;;4990203;28;20460;-66
2023/07/06 09:49:58;;;;;;;1.50;1.40;;;23.30;38.70;;;;;;4993708;28;20334;-66
2023/07/06 09:52:25;;;;;;;1.30;1.20;;;23.30;38.70;;;;;;4995082;28;20539;-66
2023/07/06 09:55:29;;;;;;;1.83;1.20;;;23.30;38.70;;;;;;4993600;28;21496;-66
2023/07/06 09:57:58;;;;;;;1.87;1.23;;;23.30;38.70;;;;;;4994802;28;20460;-66
2023/07/06 10:00:41;;;;;;;1.10;0.97;;;23.30;38.70;;;;;;4998875;28;20464;-66
2023/07/06 10:03:40;;;;;;;1.30;1.20;;;23.30;38.70;;;;;;4995188;28;20445;-66
2023/07/06 10:06:27;;;;;;;1.10;1.00;;;23.30;38.70;;;;;;4994739;28;21006;-66
2023/07/06 10:09:03;;;;;;;1.30;1.20;;;23.30;38.70;;;;;;4996276;28;20515;-66
2023/07/06 10:11:34;;;;;;;1.30;1.20;;;23.30;38.70;;;;;;4995721;28;20461;-66
2023/07/06 10:14:12;;;;;;;3.40;1.30;;;23.30;38.80;;;;;;4993637;28;20531;-66
2023/07/06 10:17:01;;;;;;;1.23;1.13;;;23.30;38.70;;;;;;4994229;28;20858;-67
2023/07/06 10:19:31;;;;;;;1.37;1.27;;;23.40;38.80;;;;;;4994144;28;20473;-67
2023/07/06 10:22:13;;;;;;;1.30;1.20;;;23.30;38.70;;;;;;4993899;28;20709;-67
2023/07/06 10:24:45;;;;;;;1.30;1.20;;;23.30;38.60;;;;;;4990767;28;20453;-67
2023/07/06 10:27:19;;;;;;;1.20;1.10;;;23.30;38.70;;;;;;4993732;28;20462;-67
2023/07/06 10:29:54;;;;;;;1.40;1.30;;;23.30;38.70;;;;;;4990096;28;21009;-67
2023/07/06 10:32:34;;;;;;;1.60;1.03;;;23.30;39.40;;;;;;4994197;28;20553;-66
2023/07/06 10:35:00;;;;;;;1.00;0.90;;;23.30;38.60;;;;;;4993457;28;20588;-68
2023/07/06 10:37:27;;;;;;;1.20;1.10;;;23.30;38.60;;;;;;4994466;28;20463;-67
2023/07/06 10:40:04;;;;;;;1.10;1.00;;;23.40;38.70;;;;;;4995643;28;20219;-66
2023/07/06 10:42:31;;;;;;;1.30;1.20;;;23.30;38.60;;;;;;4989647;28;20449;-66
2023/07/06 10:44:58;;;;;;;1.17;1.07;;;23.40;38.60;;;;;;4993118;28;20619;-66
2023/07/06 10:47:44;;;;;;;1.10;1.00;;;23.40;38.60;;;;;;4993781;28;20461;-66
2023/07/06 10:50:28;;;;;;;1.37;1.27;;;23.40;38.50;;;;;;4995133;28;20461;-66
2023/07/06 10:53:04;;;;;;;1.13;1.00;;;23.40;38.50;;;;;;4991117;28;20479;-66
2023/07/06 10:55:34;;;;;;;1.20;1.10;;;23.30;38.50;;;;;;4991227;28;20607;-66
2023/07/06 10:58:19;;;;;;;2.50;1.30;;;23.40;38.50;;;;;;4995168;28;20549;-66
2023/07/06 11:00:47;;;;;;;1.20;1.10;;;23.40;38.50;;;;;;4997319;28;20484;-66
2023/07/06 11:03:17;;;;;;;1.20;1.10;;;23.40;38.50;;;;;;4993112;28;20457;-65
2023/07/06 11:05:56;;;;;;;0.90;0.90;;;23.40;38.50;;;;;;4992403;28;20446;-66
2023/07/06 11:09:04;;;;;;;1.20;1.10;;;23.40;38.50;;;;;;4993172;28;20462;-66
2023/07/06 11:11:33;;;;;;;1.20;1.10;;;23.40;38.50;;;;;;4990898;28;20466;-66
2023/07/06 11:14:33;;;;;;;1.40;1.30;;;23.40;38.50;;;;;;4985691;28;20577;-66
2023/07/06 11:17:13;;;;;;;1.17;1.07;;;23.40;38.50;;;;;;4974892;28;20454;-66
2023/07/06 11:19:43;;;;;;;1.10;1.00;;;23.40;38.40;;;;;;4994923;28;20550;-66
2023/07/06 11:22:16;;;;;;;1.20;0.90;;;23.40;38.40;;;;;;4986519;28;20457;-67
2023/07/06 11:24:48;;;;;;;1.10;1.00;;;23.40;38.40;;;;;;4990413;28;20461;-66
2023/07/06 11:27:34;;;;;;;1.10;1.00;;;23.40;38.30;;;;;;4991122;28;20473;-66
2023/07/06 11:30:13;;;;;;;1.20;1.10;;;23.40;38.30;;;;;;4991297;28;20693;-66
2023/07/06 11:32:55;;;;;;;1.10;1.00;;;23.40;38.30;;;;;;4994362;28;20511;-66
2023/07/06 11:35:41;;;;;;;1.10;1.00;;;23.40;38.20;;;;;;4990272;28;20469;-66
2023/07/06 11:38:38;;;;;;;1.10;1.00;;;23.40;38.20;;;;;;4989310;28;20876;-66
2023/07/06 11:41:18;;;;;;;1.10;1.00;;;23.40;38.20;;;;;;4986098;28;20452;-66
2023/07/06 11:43:49;;;;;;;1.03;0.93;;;23.40;38.10;;;;;;4988019;28;20548;-66
2023/07/06 11:46:43;;;;;;;1.20;1.10;;;23.40;38.20;;;;;;4979627;28;20530;-65
2023/07/06 11:49:42;;;;;;;0.80;0.80;;;23.40;38.20;;;;;;4987546;28;20469;-67
2023/07/06 11:52:14;;;;;;;1.80;1.10;;;23.40;38.20;;;;;;4984162;28;20463;-66
2023/07/06 11:54:54;;;;;;;1.00;0.90;;;23.40;38.10;;;;;;4984316;28;20460;-67
2023/07/06 11:57:29;;;;;;;1.07;0.97;;;23.40;38.10;;;;;;4983278;28;20473;-67
2023/07/06 12:03:08;;;;;;;1.10;1.00;;;23.40;38.10;;;;;;4983517;28;20514;-66
2023/07/06 12:05:38;;;;;;;1.10;1.00;;;23.40;38.10;;;;;;4980800;28;20479;-66
2023/07/06 12:08:27;;;;;;;1.20;1.10;;;23.40;38.10;;;;;;4984806;28;20499;-66
2023/07/06 12:10:56;;;;;;;1.63;1.00;;;23.40;38.80;;;;;;4984901;28;20453;-66
2023/07/06 12:13:29;;;;;;;0.97;0.90;;;23.40;38.00;;;;;;4986160;28;22143;-67
2023/07/06 12:16:03;;;;;;;1.00;0.90;;;23.40;38.00;;;;;;4985779;28;20852;-66
2023/07/06 12:18:29;;;;;;;1.03;0.90;;;23.40;38.00;;;;;;4985295;28;20472;-67
2023/07/06 12:20:56;;;;;;;1.00;0.90;;;23.40;38.00;;;;;;4968542;28;20480;-66
2023/07/06 12:23:22;;;;;;;0.93;0.93;;;23.40;38.10;;;;;;4987332;28;20258;-67
2023/07/06 12:25:48;;;;;;;0.80;0.80;;;23.40;38.10;;;;;;4985602;28;21616;-67
2023/07/06 12:28:16;;;;;;;1.10;1.00;;;23.40;38.00;;;;;;4980359;28;21823;-65
2023/07/06 12:30:43;;;;;;;1.10;1.00;;;23.40;38.00;;;;;;4986636;28;20536;-66
2023/07/06 12:33:19;;;;;;;1.10;0.93;;;23.40;38.00;;;;;;4986762;28;20458;-66
2023/07/06 12:35:46;;;;;;;0.90;0.90;;;23.40;38.00;;;;;;4983411;28;21025;-66
2023/07/06 12:38:15;;;;;;;1.07;0.97;;;23.40;38.00;;;;;;4983152;28;20456;-66
2023/07/06 12:40:41;;;;;;;0.90;0.87;;;23.40;38.00;;;;;;4983620;28;20515;-67
2023/07/06 12:43:25;;;;;;;1.13;1.03;;;23.40;38.00;;;;;;4984610;28;20457;-66
2023/07/06 12:45:53;;;;;;;0.70;0.70;;;23.50;38.10;;;;;;4980843;28;20503;-66
2023/07/06 12:48:25;;;;;;;0.80;0.80;;;23.40;38.10;;;;;;4982205;28;20476;-66
2023/07/06 12:50:54;;;;;;;1.10;1.00;;;23.40;38.00;;;;;;4985084;28;20472;-66
2023/07/06 12:53:33;;;;;;;0.90;0.90;;;23.40;38.00;;;;;;4984962;28;21652;-67
2023/07/06 12:56:06;;;;;;;1.10;1.00;;;23.50;38.20;;;;;;4984318;28;21090;-67
2023/07/06 12:58:34;;;;;;;1.10;1.00;;;23.50;38.20;;;;;;4982837;28;21231;-66
2023/07/06 13:01:04;;;;;;;0.93;0.93;;;23.50;38.10;;;;;;4984135;28;21235;-66
2023/07/06 13:03:30;;;;;;;1.37;0.93;;;23.50;38.10;;;;;;4980003;28;20476;-67
2023/07/06 13:05:56;;;;;;;1.00;0.90;;;23.50;38.20;;;;;;4986861;28;20460;-66
2023/07/06 13:08:23;;;;;;;0.93;0.93;;;23.50;38.20;;;;;;4985664;28;20461;-66